Nearby METAR Reports

 

EDNY - Friedrichshafen, Germany
Distance from station: ONO 32km
aktuell: 22.02.2019 03:20
stark bewölkt
stark bewölkt
 Wind von varies
Wind: varies 2 km/h
Temperatur: 4°C
Taupunkt: 2°C
Luftfeuchte: 87%
Luftdruck: 1031 hPa
Clouds: stark bewölkt
Visibility: 10 km
Cloud details: teilweise bewölkt 1158 m
stark bewölkt 1646 m
2019/02/22 02:20 EDNY 220220Z AUTO VRB01KT 9999 // SCT038/// BKN054/// 04/02 Q1031
LSZR - Rheineck/Altenrh, Switzerland
Distance from station: OSO 37km
aktuell: 22.02.2019 03:50
geschlossene Wolkendecke
geschlossene Wolkendecke
 Wind von OSO
Wind: OSO 9 km/h
Temperatur: 6°C
gefühlte Temperatur: 4°C
Taupunkt: 4°C
Luftfeuchte: 87%
Luftdruck: 1031 hPa
Clouds: geschlossene Wolkendecke
Visibility: 10 km
Cloud details: geschlossene Wolkendecke 1494 m
2019/02/22 02:50 LSZR 220250Z AUTO 11005KT 9999 OVC049 06/04 Q1031
LSMD - Dubendorf, Switzerland
Distance from station: SW 40km
aktuell: 22.02.2019 03:20
geschlossene Wolkendecke
geschlossene Wolkendecke
 Wind von calm
Wind: Windstill
Temperatur: 5°C
Taupunkt: 3°C
Luftfeuchte: 87%
Luftdruck: 1032 hPa
Clouds: geschlossene Wolkendecke
Visibility: 10 km
Cloud details: teilweise bewölkt 1829 m
geschlossene Wolkendecke 2530 m
2019/02/22 02:20 LSMD 220220Z AUTO 00000KT 9999NDV SCT060 OVC083 05/03 Q1032 RMK
 
LSZH - Zurich-Kloten (a, Switzerland
Distance from station: WSW 44km
aktuell: 22.02.2019 03:50
Nearby showers, stark bewölkt
Nearby showers, stark bewölkt
 Wind von varies
Wind: varies 2 km/h
Temperatur: 5°C
Taupunkt: 2°C
Luftfeuchte: 81%
Luftdruck: 1032 hPa
Zusammenfassung: Nearby Showers
Clouds: stark bewölkt
Visibility: 10 km
Cloud details: Few Clouds 1372 m
teilweise bewölkt 1676 m
stark bewölkt 2134 m
2019/02/22 02:50 LSZH 220250Z VRB01KT 9999 VCSH FEW045 SCT055 BKN070 05/02 Q1032 TEMPO SHRA
LOIH - Hohenems-Dornbir, Austria
Distance from station: OSO 51km
aktuell: 31.10.2016 17:00
NOT Current
geschlossene Wolkendecke
geschlossene Wolkendecke
 Wind von calm
Wind: Windstill
Temperatur: 10°C
Taupunkt: 9°C
Luftfeuchte: 94%
Luftdruck: 1026 hPa
Clouds: geschlossene Wolkendecke
Cloud details: geschlossene Wolkendecke 305 m
2016/10/31 16:00 LOIH 311600Z 00000KT 10KM OVC010ST 10/09 Q1026 RMK OVC
LSME - Emmen, Switzerland
Distance from station: SW 82km
aktuell: 22.02.2019 03:20
geschlossene Wolkendecke
geschlossene Wolkendecke
 Wind von varies
Wind: varies 4 km/h
Temperatur: 6°C
Taupunkt: 1°C
Luftfeuchte: 71%
Luftdruck: 1032 hPa
Clouds: geschlossene Wolkendecke
Visibility: 10 km
Cloud details: stark bewölkt 2164 m
geschlossene Wolkendecke 2682 m
2019/02/22 02:20 LSME 220220Z AUTO VRB02KT 9999NDV BKN071 OVC088 06/01 Q1032 RMK
 
LSZC - Buochs, Switzerland
Distance from station: SW 89km
aktuell: 22.02.2019 03:50
stark bewölkt
stark bewölkt
 Wind von varies
Wind: varies 4 km/h
Temperatur: 5°C
Taupunkt: 1°C
Luftfeuchte: 76%
Luftdruck: 1032 hPa
Clouds: stark bewölkt
Visibility: 10 km
Cloud details: teilweise bewölkt 2134 m
stark bewölkt 2743 m
2019/02/22 02:50 LSZC 220250Z AUTO VRB02KT 9999 SCT070 BKN090 05/01 Q1032
ETHL - Laupheim (ger-Ar, Germany
Distance from station: NO 92km
aktuell: 22.02.2019 03:20
stark bewölkt
stark bewölkt
 Wind von SW
Wind: SW 11 km/h
Temperatur: 7°C
gefühlte Temperatur: 5°C
Taupunkt: 3°C
Luftfeuchte: 76%
Luftdruck: 1030 hPa
Clouds: stark bewölkt
Visibility: 10 km
Cloud details: stark bewölkt 1524 m
2019/02/22 02:20 ETHL 220220Z 22006KT 9999 BKN050 07/03 Q1030 BLU
EDJA - Memmingen Allgau, Germany
Distance from station: ONO 95km
aktuell: 21.02.2019 21:50
NOT Current
klar
klar
 Wind von SSW
Wind: SSW 9 km/h
Temperatur: 5°C
gefühlte Temperatur: 3°C
Taupunkt: 1°C
Luftfeuchte: 76%
Luftdruck: 1029 hPa
Zusammenfassung: klar
Visibility: greater than 10 km
2019/02/21 20:50 EDJA 212050Z 21005KT CAVOK 05/01 Q1029
 
LSMA - Alpnach, Switzerland
Distance from station: SW 95km
aktuell: 22.02.2019 03:20
geschlossene Wolkendecke
geschlossene Wolkendecke
 Wind von varies
Wind: varies 4 km/h
Temperatur: 4°C
Taupunkt: 1°C
Luftfeuchte: 81%
Luftdruck: 1032 hPa
Clouds: geschlossene Wolkendecke
Visibility: 10 km
Cloud details: geschlossene Wolkendecke 2408 m
2019/02/22 02:20 LSMA 220220Z AUTO VRB02KT 9999NDV OVC079 04/01 Q1032 RMK